Air Resources Laboratory banner image
Air Resources Laboratory web site National Oceanic and Atmospheric Administration (NOAA)

ny metar


KALB 211751Z 24014KT 9SM -SN BKN034 BKN048 OVC070 04/M03 A2987 RMK AO2 SLP120
 4/001 P0000 60000 T00391033 10044 21006 56018=
KART 211756Z AUTO 29024G37KT 10SM SCT040 M02/M08 A2993 RMK AO2 PK WND
 31037/1749 SLP141 60004 T10171083 10022 21017 53028=
KBGM 211753Z 26015KT 2SM -SN BR SCT010 OVC018 M01/M03 A2988 RMK AO2 TWR VIS 2
 1/2 SLP138 P0000 60000 T10111028 11011 21022 57009=
KBNL 211755Z AUTO 30005KT 10SM CLR 15/04 A3022 RMK AO2=
KBUF 211754Z 30016G29KT 10SM FEW036 SCT060 M01/M09 A3009 RMK AO2 PK WND
 28030/1738 SLP197 SCT V BKN 60000 4/001 T10111094 10006 21017 51027=
KDKK 211753Z AUTO 31017G27KT 10SM UP BKN028 BKN036 OVC060 M01/M06 A3012 RMK AO2
 PK WND 32030/1656 UPE06B28 SLP209 P0000 60000 T10111061 10022 21011 53027=
KDSV 211754Z AUTO 30012G18KT 10SM BKN037 OVC043 00/M07 A3003 RMK AO2 PK WND
 32028/1700 SNE36 SLP184 P0000 60003 T00001067 10017 20000 53018=
KELM 211753Z 25011G20KT 8SM SCT025 OVC030 02/M03 A2995 RMK AO2 UPE05SNB05E33
 SLP152 P0000 60000 T00171028 10017 20011 57002=
KELZ 211756Z AUTO 33019G24KT 1 1/4SM -SN BR OVC012 M03/M03 A2996 RMK AO2
 UPE1657SNB1657 SLP174 P0001 60002 I6001 T10281033 11022 21028 53005=
KFOK 211753Z 24012KT 10SM OVC100 06/M03 A2999 RMK AO2 SLP154 T00611033 10061
 21061 58026 $=
KFRG 211753Z 28014G21KT 10SM BKN100 06/M04 A2998 RMK AO2 SLP154 T00611039 10061
 20000 58027=
KFZY 211754Z AUTO 31026G38KT 3/4SM -SN FEW029 BKN035 OVC044 M01/M07 A2997 RMK
 AO2 PK WND 30038/1754 RAE1659UPB1659E52SNB52 SLP154 P0000 60004 T10111072 10017
KGFL 211753Z AUTO 22009KT 10SM BKN032 OVC047 02/M02 A2981 RMK AO2 SNB03E44
 SLP101 P0000 60000 T00171017 10017 21022 56023=
KGTB 211756Z 29011G21KT 8SM -BLSN BKN035 M02/M09 A2988 RMK AO2A PK WND 31032/53
 SNE1656 SLP129 P0000 60000 4/003 T10221091 10003 21022 52025=
KHPN 211756Z 26010G19KT 10SM BKN043 BKN100 05/M05 A2995 RMK AO2 SLP149
 T00501050 10050 20006 56025=
KHTO 211755Z AUTO 26010G15KT 10SM BKN100 OVC120 05/M04 A2996 RMK AO2 T00531040
 10054 20000=
KHWV 211756Z AUTO 24010G17KT 10SM OVC100 M17/ A2997 RMK AO2 SLP151 T1172 56028
 $=
KIAG 211753Z 31023G31KT 10SM BKN047 M02/M10 A3011 RMK AO2 PK WND 29034/1712
 SLP212 60001 T10221100 10006 21022 53029=
KISP 211756Z 26013KT 10SM FEW040 FEW080 OVC100 06/M03 A2997 RMK AO2 SLP149
 T00611033 10061 21006 58028=
KITH 211756Z 31022G26KT 1SM R32/P6000FT -SN BR SCT008 BKN013 OVC021 M01/M03
 A2996 RMK AO2 PK WND 32026/1749 VIS 1/4V4 SLP157 P0001 60001 T10111028 10006
 21017 53006=
KJFK 211751Z 27018G29KT 10SM FEW055 BKN110 BKN140 07/M03 A3001 RMK AO2 PK WND
 27029/1737 SLP161 T00721028 10078 20028 56028=
KJHW 211756Z AUTO 32013G22KT 9SM -SN OVC010 M03/M05 A3005 RMK AO2 SLP203 P0002
 60003 T10331050 11011 21033 53008 FZRANO=
KLGA 211751Z 27014G24KT 10SM FEW048 OVC100 07/M05 A2999 RMK AO2 PK WND
 27027/1721 SLP154 T00671050 10072 20033 56027=
KMGJ 211754Z AUTO 27013KT 10SM OVC040 05/M03 A2993 RMK AO2 SLP138 T00501033
 10050 20006 56020=
KMSS 211753Z AUTO 30023G33KT 2 1/2SM UP FEW027 BKN040 OVC055 M04/M11 A2988 RMK
 AO2 PK WND 29033/1752 VIS 1 3/4V5 UPB41SNE41 SLP125 P0000 60001 T10441106
 11006 21044 51024=
KMSV 211756Z AUTO 26014G27KT 10SM -SN OVC025 01/M04 A2991 RMK AO2 PK WND
 28027/1747 RAB28E50SNB50 SLP142 P0000 60000 T00111039 10011 21022 56018 FZRANO=
KMTP 211754Z AUTO 25011G19KT 06/M03 A2996 RMK AO1 SLP145 T00561033 10056 20039
 58025=
KNYC 211751Z AUTO 10SM FEW046 OVC100 07/M04 A3001 RMK AO2 SLP153 T00671039
 10067 20022 56025=
KOGS 211755Z AUTO 31018G25KT 1SM -SN OVC007 M03/M06 A2990 RMK AO2 T10351064
 10007 21035=
KOLE 211755Z AUTO 30015G26KT 270V330 2 1/2SM -SN BKN009 OVC012 M04/M04 A2997
 RMK AO2=
KPBG 211753Z AUTO 30009KT 7SM -SN FEW029 BKN039 OVC050 M01/M05 A2978 RMK AO2
 SNE12B33 SLP088 P0000 60002 T10061050 10000 21039 53002=
KPEO 211753Z AUTO 28013G31KT 5SM -SN BKN028 OVC037 M01/M07 A2998 RMK AO2 PK WND
 26031/1749 SLP163 P0000 60001 T10061067 10017 21006 53014=
KPOU 211753Z 25013KT 10SM OVC041 05/M04 A2994 RMK AO2 SLP135 T00501039 10050
 20017 56025=
KRME 211753Z 29020G30KT 3SM -SN FEW025 OVC034 M01/M04 A2992 RMK AO2 PK WND
 29030/1714 SLP136 P0000 60001 T10061039 10017 21022 53007=
KROC 211754Z 32021G33KT 10SM FEW033 BKN047 BKN065 M01/M08 A3003 RMK AO2 PK WND
 29040/1733 SNE34 SLP179 4/002 933001 P0000 60002 T10061083 10022 21006 53030=
KSCH 211746Z 24009G19KT 10SM BKN036 OVC043 03/M02 A2985=
KSLK 211751Z AUTO 28011G19KT 240V300 1 1/2SM -SN BR FEW012 BKN019 OVC032
 M05/M07 A2972 RMK AO2 SLP091 P0001 60002 T10501072 11028 21067 53011=
KSWF 211745Z 27015G25KT 10SM OVC040 04/M02 A2994=
KSYR 211754Z 29021G27KT 8SM -SN BLSN BKN029 OVC038 M01/M06 A2996 RMK AO2 PK WND
 30031/1722 GSE07 SLP148 4/004 933010 P0001 60004 T10061056 10017 21011 53017=